Aérodrome :
LOGIN :

S'inscrire | Disclaimer

   EN    FR    IT 

 










Légende :    VFR   VFR Marginal   IFR   IFR Intensif   IFR Très Intensif
Visi : 
Plafond : 
>= 8 km
>= 3000ft
5 à 8 km
1000 à 3000 ft
1500m à 5 km
500 à 1000 ft
800 à 1500m
200 à 500 ft
< 800m
< 200 ft
Symboles :   Orages  Brouillard  Fortes neiges  Fortes précipitations  Vent > 20 kt
SIGMETs :   Divers  Orages  Givrage  Turbulence  Onde Orograph.  Cendres Volcan.






- Altitude de l'aérodrome : 529 ft
- Code IATA : CHR


LFLX - Chateauroux

DERNIER METAR :
  • 260800Z AUTO 23005KT 9999 BKN045 OVC058 05/04 Q1018 TEMPO 4000 -SHRA BKN040 SCT050TCU

METARs EXPIRÉS :
  • 260730Z AUTO 19004KT CAVOK 04/04 Q1018 TEMPO 4000 -SHRA BKN040 SCT050TCU
  • 260700Z AUTO 18002KT CAVOK 03/03 Q1017 TEMPO 4000 -SHRA BKN040 SCT050TCU
  • 260630Z AUTO 14003KT CAVOK 03/02 Q1017 TEMPO 4000 -SHRA BKN040 SCT050TCU
  • 260600Z AUTO 10004KT 9000 NSC 03/02 Q1017 TEMPO 4000 -SHRA BKN040 SCT050TCU
  • 260530Z AUTO 10003KT CAVOK 03/02 Q1017 TEMPO 4000 -SHRA BKN040 SCT050TCU

TAF TAF LFLX
Valide du 26 à 06h jusqu'au 27 à 12h UTC


260500Z 2606/2712 18005KT CAVOK
TEMPO 2606/2611 4000 -SHRA BKN040 SCT050TCU
TEMPO 2611/2615 BKN006
BECMG 2620/2622 20015G25KT
BECMG 2622/2701 -RA BKN030
TEMPO 2701/2705 2500 RA BKN014
BECMG 2710/2712 4000 RA BKN014 SCT020TCU



MET'MAP, la Météo Aéronautique d'un coup d'oeil ! - Copyright ORBIFLY Décembre 2007 - Disclaimer

ORBIFLY MET'MAP TEAM :

Programmation & Développement : Alexandra Zaïnal
Sur une idée originale de : Baudouin d'Aumeries
Assistance à la programmation : Marc-Olivier Méhu
Soutien technique & logistique : Manuel Goepfert

Contact : metmap@orbifly.com




SOURCES & CREDITS :

   NOAA